Time;durP1;ratioP1;P1;durP2;ratioP2;P2;SDS_P1;SDS_P2;PMS_P1;PMS_P2;Temp;Humidity;BMP_temperature;BMP_pressure;BME280_temperature;BME280_humidity;BME280_pressure;Samples;Min_cycle;Max_cycle;Signal;HPM_P1;HPM_P2
2023/12/14 00:01:59;;;;;;;25.15;13.88;;;;;;;7.42;100.00;100736.22;5095516;28;20448;-58
2023/12/14 00:04:24;;;;;;;22.55;12.95;;;;;;;7.35;100.00;100740.13;5113854;28;20402;-58
2023/12/14 00:06:49;;;;;;;19.40;12.63;;;;;;;7.36;100.00;100735.69;5113814;28;20031;-58
2023/12/14 00:09:15;;;;;;;19.05;11.68;;;;;;;7.32;100.00;100753.50;5095424;28;20024;-58
2023/12/14 00:11:40;;;;;;;18.88;12.27;;;;;;;7.30;100.00;100752.75;5113822;28;20102;-58
2023/12/14 00:14:06;;;;;;;17.98;12.05;;;;;;;7.27;100.00;100755.53;5113825;28;20076;-58
2023/12/14 00:16:31;;;;;;;18.77;11.35;;;;;;;7.21;100.00;100758.50;5113361;28;20031;-58
2023/12/14 00:18:59;;;;;;;16.80;11.02;;;;;;;7.10;100.00;100755.53;5113851;28;20026;-58
2023/12/14 00:21:24;;;;;;;16.27;10.80;;;;;;;7.14;100.00;100778.25;5113521;28;20028;-58
2023/12/14 00:23:50;;;;;;;21.40;12.18;;;;;;;7.12;100.00;100778.34;5113436;28;20442;-58
2023/12/14 00:26:17;;;;;;;16.48;11.68;;;;;;;7.12;100.00;100786.28;5113489;28;20035;-58
2023/12/14 00:28:42;;;;;;;16.77;12.43;;;;;;;7.08;100.00;100783.84;5113414;28;20044;-58
2023/12/14 00:31:08;;;;;;;19.35;12.15;;;;;;;7.06;100.00;100794.50;5113307;28;20016;-59
2023/12/14 00:33:33;;;;;;;17.27;11.77;;;;;;;7.02;100.00;100799.06;5113220;28;20466;-58
2023/12/14 00:35:58;;;;;;;19.52;11.75;;;;;;;6.95;100.00;100805.59;5113579;28;20283;-58
2023/12/14 00:38:24;;;;;;;16.15;11.80;;;;;;;6.92;100.00;100816.31;5112907;28;20026;-58
2023/12/14 00:40:49;;;;;;;21.08;13.02;;;;;;;6.90;100.00;100823.47;5113160;28;20077;-58
2023/12/14 00:43:15;;;;;;;19.30;11.95;;;;;;;6.77;100.00;100825.00;5113172;28;20103;-58
2023/12/14 00:45:41;;;;;;;20.63;12.15;;;;;;;6.77;100.00;100838.22;5094945;28;20026;-58
2023/12/14 00:48:06;;;;;;;21.55;13.23;;;;;;;6.67;100.00;100845.69;5113367;28;20107;-58
2023/12/14 00:50:32;;;;;;;19.60;12.73;;;;;;;6.65;100.00;100850.22;5112996;28;20106;-58
2023/12/14 00:52:57;;;;;;;21.45;13.13;;;;;;;6.65;100.00;100849.34;5094236;28;20027;-58
2023/12/14 00:55:23;;;;;;;19.33;12.20;;;;;;;6.66;100.00;100857.22;5113081;28;20068;-58
2023/12/14 00:57:50;;;;;;;22.67;14.15;;;;;;;6.59;100.00;100854.00;5112488;28;20027;-58
2023/12/14 01:00:16;;;;;;;24.02;14.98;;;;;;;6.54;100.00;100856.00;5112788;28;20032;-59
2023/12/14 01:02:42;;;;;;;23.77;14.20;;;;;;;6.51;100.00;100856.13;5111807;28;20030;-58
2023/12/14 01:05:07;;;;;;;21.38;13.30;;;;;;;6.43;100.00;100860.06;5090145;28;20107;-58
2023/12/14 01:07:32;;;;;;;23.98;13.70;;;;;;;6.40;100.00;100863.69;5112151;28;20023;-58
2023/12/14 01:09:58;;;;;;;24.73;14.02;;;;;;;6.42;100.00;100867.13;5112948;28;20020;-58
2023/12/14 01:12:23;;;;;;;24.73;13.75;;;;;;;6.39;100.00;100874.34;5112346;28;20073;-58
2023/12/14 01:14:49;;;;;;;24.40;14.02;;;;;;;6.35;100.00;100886.81;5112409;28;20035;-58
2023/12/14 01:17:14;;;;;;;22.88;12.80;;;;;;;6.24;100.00;100883.81;5094312;28;20024;-58
2023/12/14 01:19:41;;;;;;;24.13;13.20;;;;;;;6.09;100.00;100882.72;5112465;28;20027;-58
2023/12/14 01:22:09;;;;;;;22.02;12.68;;;;;;;6.18;100.00;100914.00;5094650;28;20494;-58
2023/12/14 01:24:34;;;;;;;22.45;11.85;;;;;;;6.19;100.00;100913.06;5093793;28;20144;-59
2023/12/14 01:27:02;;;;;;;21.20;12.23;;;;;;;6.18;100.00;100918.38;5112599;28;20036;-58
2023/12/14 01:29:29;;;;;;;20.35;12.32;;;;;;;6.16;100.00;100910.53;5111757;28;20126;-58
2023/12/14 01:31:55;;;;;;;19.63;11.43;;;;;;;6.18;100.00;100929.84;5112297;28;20024;-58
2023/12/14 01:34:20;;;;;;;19.20;11.40;;;;;;;6.17;100.00;100933.38;5112290;28;20488;-58
2023/12/14 01:36:45;;;;;;;22.33;12.07;;;;;;;6.16;100.00;100930.81;5112426;28;20019;-58
2023/12/14 01:39:11;;;;;;;18.90;11.60;;;;;;;6.19;100.00;100931.53;5093577;28;20122;-58
2023/12/14 01:41:36;;;;;;;20.77;14.13;;;;;;;6.20;100.00;100940.31;5111559;28;20035;-58
2023/12/14 01:44:02;;;;;;;16.10;10.25;;;;;;;6.18;100.00;100942.16;5111703;28;20029;-58
2023/12/14 01:46:27;;;;;;;17.10;10.68;;;;;;;6.16;100.00;100955.44;5094053;28;20020;-58
2023/12/14 01:48:52;;;;;;;19.65;12.30;;;;;;;6.13;100.00;100948.50;5111991;28;20054;-58
2023/12/14 01:51:18;;;;;;;16.88;10.90;;;;;;;6.13;100.00;100945.00;5093629;28;20030;-58
2023/12/14 01:53:44;;;;;;;17.98;11.70;;;;;;;6.18;100.00;100961.53;5093041;28;20032;-58
2023/12/14 01:56:10;;;;;;;15.15;9.75;;;;;;;6.16;100.00;100973.91;5111926;28;20035;-58
2023/12/14 01:58:35;;;;;;;18.73;10.73;;;;;;;6.13;100.00;100977.53;5111415;28;20028;-58
2023/12/14 02:01:10;;;;;;;15.55;9.65;;;;;;;6.13;100.00;100984.63;5093674;28;20022;-58
2023/12/14 02:03:35;;;;;;;15.23;9.93;;;;;;;6.10;100.00;100987.38;5111414;28;20028;-58
2023/12/14 02:06:01;;;;;;;17.45;9.27;;;;;;;6.04;100.00;100993.78;5111770;28;20028;-58
2023/12/14 02:08:28;;;;;;;14.18;10.00;;;;;;;5.96;100.00;100987.09;5111225;28;20035;-58
2023/12/14 02:10:57;;;;;;;15.45;10.00;;;;;;;5.99;100.00;100995.75;5093172;28;20115;-58
2023/12/14 02:13:22;;;;;;;15.48;9.32;;;;;;;5.99;100.00;101005.44;5111532;28;20042;-58
2023/12/14 02:15:47;;;;;;;15.65;10.57;;;;;;;5.96;100.00;101006.44;5112077;28;20102;-59
2023/12/14 02:18:13;;;;;;;15.90;9.88;;;;;;;5.85;100.00;100996.31;5093327;28;20038;-58
2023/12/14 02:20:41;;;;;;;15.52;10.52;;;;;;;5.96;100.00;101019.63;5111777;28;20016;-58
2023/12/14 02:23:09;;;;;;;15.02;10.50;;;;;;;5.99;100.00;101029.22;5092885;28;20404;-58
2023/12/14 02:25:34;;;;;;;17.73;11.68;;;;;;;5.98;100.00;101023.09;5111014;28;20031;-58
2023/12/14 02:27:59;;;;;;;16.02;9.90;;;;;;;5.99;100.00;101030.06;5092055;28;20054;-58
2023/12/14 02:30:25;;;;;;;15.63;10.18;;;;;;;6.01;100.00;101032.66;5111403;28;20050;-58
2023/12/14 02:32:50;;;;;;;18.00;9.98;;;;;;;6.00;100.00;101023.00;5111203;28;20024;-58
2023/12/14 02:35:18;;;;;;;14.45;10.40;;;;;;;5.98;100.00;101023.09;5111541;28;20024;-58
2023/12/14 02:37:43;;;;;;;15.45;9.93;;;;;;;5.94;100.00;101032.03;5111379;28;20035;-58
2023/12/14 02:40:10;;;;;;;15.60;10.55;;;;;;;5.98;100.00;101040.72;5093223;28;20390;-58
2023/12/14 02:42:35;;;;;;;17.88;11.10;;;;;;;6.02;100.00;101047.56;5111037;28;20435;-58
2023/12/14 02:45:02;;;;;;;17.00;11.10;;;;;;;6.04;100.00;101057.16;5111207;28;20031;-58
2023/12/14 02:47:30;;;;;;;17.38;11.20;;;;;;;5.97;100.00;101063.63;5111407;28;20148;-59
2023/12/14 02:49:56;;;;;;;20.17;11.48;;;;;;;5.97;100.00;101074.19;5111523;28;20028;-58
2023/12/14 02:52:22;;;;;;;18.95;12.65;;;;;;;5.80;100.00;101060.75;5094083;28;20501;-58
2023/12/14 02:54:47;;;;;;;18.38;12.50;;;;;;;5.85;100.00;101080.78;5096530;28;20041;-58
2023/12/14 02:57:13;;;;;;;18.02;12.00;;;;;;;5.89;100.00;101078.84;5115391;28;20027;-58
2023/12/14 02:59:39;;;;;;;16.40;11.55;;;;;;;5.89;100.00;101081.50;5115398;28;20020;-58
2023/12/14 03:02:05;;;;;;;21.35;12.23;;;;;;;5.90;100.00;101085.84;5097100;28;20483;-58
2023/12/14 03:04:30;;;;;;;17.88;11.52;;;;;;;5.91;100.00;101085.81;5112123;28;20027;-58
2023/12/14 03:06:56;;;;;;;17.42;11.38;;;;;;;5.91;100.00;101088.44;5115249;28;20062;-58
2023/12/14 03:09:23;;;;;;;16.52;11.32;;;;;;;5.89;100.00;101087.63;5114595;28;20038;-58
2023/12/14 03:11:50;;;;;;;20.15;12.00;;;;;;;5.89;100.00;101092.91;5114727;28;20471;-58
2023/12/14 03:14:15;;;;;;;19.58;10.85;;;;;;;5.85;100.00;101101.00;5096821;28;20042;-59
2023/12/14 03:16:40;;;;;;;15.80;10.60;;;;;;;5.80;100.00;101101.19;5115323;28;20034;-58
2023/12/14 03:19:06;;;;;;;19.05;11.20;;;;;;;5.82;100.00;101101.13;5115071;28;20023;-59
2023/12/14 03:21:31;;;;;;;19.92;11.73;;;;;;;5.84;100.00;101109.84;5114815;28;20028;-58
2023/12/14 03:23:57;;;;;;;18.50;11.70;;;;;;;5.82;100.00;101107.25;5095836;28;20019;-58
2023/12/14 03:26:22;;;;;;;19.77;12.07;;;;;;;5.84;100.00;101099.28;5114075;28;20032;-58
2023/12/14 03:28:47;;;;;;;20.23;11.40;;;;;;;5.77;100.00;101101.31;5114471;28;20082;-58
2023/12/14 03:31:13;;;;;;;18.73;11.27;;;;;;;5.70;100.00;101095.41;5114722;28;20363;-58
2023/12/14 03:33:39;;;;;;;20.25;11.65;;;;;;;5.65;100.00;101091.25;5114676;28;20023;-58
2023/12/14 03:36:05;;;;;;;19.65;12.18;;;;;;;5.69;100.00;101100.75;5114528;28;20023;-58
2023/12/14 03:38:34;;;;;;;17.58;11.75;;;;;;;5.60;100.00;101095.84;5113952;28;20028;-59
2023/12/14 03:40:59;;;;;;;17.08;10.82;;;;;;;5.72;100.00;101107.69;5096025;28;20470;-58
2023/12/14 03:43:24;;;;;;;17.95;11.40;;;;;;;5.72;100.00;101111.19;5114525;28;20099;-58
2023/12/14 03:45:50;;;;;;;20.13;11.70;;;;;;;5.75;100.00;101111.06;5096099;28;20046;-58
2023/12/14 03:48:15;;;;;;;17.98;11.93;;;;;;;5.83;100.00;101121.34;5114255;28;20526;-58
2023/12/14 03:50:41;;;;;;;19.23;11.93;;;;;;;5.82;100.00;101130.16;5114084;28;20034;-59
2023/12/14 03:53:07;;;;;;;19.58;12.15;;;;;;;5.80;100.00;101132.88;5095548;28;20445;-58
2023/12/14 03:55:33;;;;;;;20.15;11.75;;;;;;;5.76;100.00;101130.38;5114082;28;20027;-58
2023/12/14 03:57:58;;;;;;;15.68;11.70;;;;;;;5.75;100.00;101141.88;5114268;28;20088;-59
2023/12/14 04:00:25;;;;;;;17.17;10.98;;;;;;;5.75;100.00;101141.88;5114503;28;20019;-58
2023/12/14 04:02:50;;;;;;;17.92;11.77;;;;;;;5.72;100.00;101139.34;5113947;28;20077;-58
2023/12/14 04:05:16;;;;;;;20.15;12.57;;;;;;;5.76;100.00;101146.22;5113402;28;20509;-58
2023/12/14 04:07:44;;;;;;;18.45;12.15;;;;;;;5.77;100.00;101146.19;5113407;28;20027;-59
2023/12/14 04:10:11;;;;;;;17.00;11.80;;;;;;;5.78;100.00;101147.03;5111363;28;20035;-58
2023/12/14 04:12:37;;;;;;;17.80;12.02;;;;;;;5.73;100.00;101138.44;5113951;28;20050;-58
2023/12/14 04:15:04;;;;;;;16.00;11.10;;;;;;;5.77;100.00;101140.06;5095460;28;20111;-58
2023/12/14 04:17:30;;;;;;;18.13;12.45;;;;;;;5.80;100.00;101145.22;5113670;28;20087;-58
2023/12/14 04:19:56;;;;;;;16.95;11.50;;;;;;;5.67;100.00;101127.19;5095401;28;20363;-58
2023/12/14 04:22:21;;;;;;;21.83;12.93;;;;;;;5.72;100.00;101155.19;5113931;28;20034;-58
2023/12/14 04:24:49;;;;;;;18.60;12.73;;;;;;;5.70;100.00;101156.09;5094622;28;20016;-58
2023/12/14 04:27:15;;;;;;;16.52;11.55;;;;;;;5.71;100.00;101164.88;5113690;28;20039;-58
2023/12/14 04:29:40;;;;;;;18.58;11.75;;;;;;;5.69;100.00;101164.09;5113204;28;20521;-58
2023/12/14 04:32:06;;;;;;;18.40;11.40;;;;;;;5.72;100.00;101178.94;5113795;28;20077;-58
2023/12/14 04:34:31;;;;;;;17.73;12.43;;;;;;;5.67;100.00;101176.47;5113213;28;20023;-58
2023/12/14 04:36:57;;;;;;;15.77;10.88;;;;;;;5.67;100.00;101185.22;5113708;28;20028;-58
2023/12/14 04:39:26;;;;;;;15.70;10.98;;;;;;;5.65;100.00;101189.72;5094297;28;20418;-58
2023/12/14 04:41:52;;;;;;;15.65;10.75;;;;;;;5.64;100.00;101189.78;5113627;28;20019;-58
2023/12/14 04:44:18;;;;;;;16.33;10.43;;;;;;;5.69;100.00;101211.56;5094974;28;20482;-58
2023/12/14 04:46:44;;;;;;;18.35;11.25;;;;;;;5.72;100.00;101215.88;5113475;28;20028;-58
2023/12/14 04:49:09;;;;;;;20.73;10.82;;;;;;;5.69;100.00;101223.00;5112897;28;20628;-58
2023/12/14 04:51:35;;;;;;;16.13;10.57;;;;;;;5.71;100.00;101230.88;5113184;28;20530;-58
2023/12/14 04:54:00;;;;;;;16.63;11.18;;;;;;;5.74;100.00;101237.81;5094039;28;20034;-58
2023/12/14 04:56:25;;;;;;;17.67;12.10;;;;;;;5.74;100.00;101237.81;5113152;28;20031;-58
2023/12/14 04:58:51;;;;;;;18.90;11.18;;;;;;;5.70;100.00;101227.34;5094783;28;20037;-58
2023/12/14 05:01:16;;;;;;;16.42;11.50;;;;;;;5.68;100.00;101234.47;5110916;28;20061;-58
2023/12/14 05:03:42;;;;;;;15.82;11.40;;;;;;;5.63;100.00;101228.50;5103052;28;20498;-58
2023/12/14 05:06:07;;;;;;;17.70;12.45;;;;;;;5.70;100.00;101252.88;5110843;28;20031;-58
2023/12/14 05:08:33;;;;;;;20.05;13.05;;;;;;;5.69;100.00;101254.66;5112028;28;20177;-58
2023/12/14 05:10:58;;;;;;;16.85;11.80;;;;;;;5.72;100.00;101260.75;5112846;28;20103;-58
2023/12/14 05:13:24;;;;;;;18.75;12.40;;;;;;;5.62;100.00;101253.16;5091765;28;20058;-58
2023/12/14 05:15:53;;;;;;;18.13;11.82;;;;;;;5.68;100.00;101267.91;5111714;28;20023;-58
2023/12/14 05:18:18;;;;;;;18.55;12.15;;;;;;;5.69;100.00;101285.47;5112468;28;20063;-58
2023/12/14 05:20:45;;;;;;;17.27;11.55;;;;;;;5.71;100.00;101286.28;5093691;28;20520;-58
2023/12/14 05:23:11;;;;;;;18.40;12.05;;;;;;;5.68;100.00;101289.88;5111986;28;20508;-58
2023/12/14 05:25:36;;;;;;;19.20;12.25;;;;;;;5.69;100.00;101290.75;5112771;28;20024;-58
2023/12/14 05:28:02;;;;;;;19.42;12.88;;;;;;;5.70;100.00;101293.31;5112303;28;20028;-58
2023/12/14 05:30:30;;;;;;;18.70;12.55;;;;;;;5.69;100.00;101304.78;5112203;28;20040;-58
2023/12/14 05:32:55;;;;;;;16.85;12.60;;;;;;;5.59;100.00;101302.53;5111950;28;20027;-58
2023/12/14 05:35:21;;;;;;;19.02;12.25;;;;;;;5.64;100.00;101319.06;5093912;28;20020;-58
2023/12/14 05:37:46;;;;;;;19.23;12.70;;;;;;;5.65;100.00;101318.16;5093311;28;20539;-58
2023/12/14 05:40:12;;;;;;;16.45;11.85;;;;;;;5.66;100.00;101323.38;5112601;28;20462;-58
2023/12/14 05:42:37;;;;;;;17.73;11.98;;;;;;;5.68;100.00;101329.47;5112320;28;20015;-58
2023/12/14 05:45:04;;;;;;;19.67;12.52;;;;;;;5.68;100.00;101341.81;5093977;28;20508;-58
2023/12/14 05:47:31;;;;;;;18.75;12.40;;;;;;;5.66;100.00;101343.63;5111897;28;20027;-58
2023/12/14 05:49:57;;;;;;;16.40;11.65;;;;;;;5.70;100.00;101355.78;5111930;28;20019;-58
2023/12/14 05:52:22;;;;;;;16.73;12.10;;;;;;;5.70;100.00;101366.34;5093350;28;20039;-58
2023/12/14 05:54:48;;;;;;;20.10;13.30;;;;;;;5.70;100.00;101372.47;5111264;28;20493;-58
2023/12/14 05:57:13;;;;;;;17.83;12.15;;;;;;;5.70;100.00;101375.13;5112049;28;20023;-59
2023/12/14 05:59:41;;;;;;;18.35;12.00;;;;;;;5.64;100.00;101371.84;5112146;28;20023;-58
2023/12/14 06:02:06;;;;;;;17.23;12.18;;;;;;;5.65;100.00;101374.44;5111971;28;20024;-58
2023/12/14 06:04:32;;;;;;;17.33;11.90;;;;;;;5.59;100.00;101363.22;5111260;28;20047;-58
2023/12/14 06:06:58;;;;;;;18.27;12.65;;;;;;;5.65;100.00;101376.22;5111822;28;20072;-58
2023/12/14 06:09:29;;;;;;;17.73;12.00;;;;;;;5.66;100.00;101381.44;5111135;28;20042;-58
2023/12/14 06:11:55;;;;;;;17.60;12.07;;;;;;;5.63;100.00;101373.63;5111710;28;20164;-58
2023/12/14 06:14:20;;;;;;;20.17;11.77;;;;;;;5.65;100.00;101371.81;5111317;28;20094;-58
2023/12/14 06:16:48;;;;;;;19.73;11.77;;;;;;;5.69;100.00;101386.59;5111620;28;20034;-58
2023/12/14 06:19:13;;;;;;;17.40;11.70;;;;;;;5.69;100.00;101383.09;5111225;28;20055;-58
2023/12/14 06:21:43;;;;;;;15.73;11.38;;;;;;;5.73;100.00;101397.91;5111882;28;20107;-58
2023/12/14 06:24:09;;;;;;;17.92;12.23;;;;;;;5.73;100.00;101402.31;5117384;28;20015;-58
2023/12/14 06:26:34;;;;;;;18.58;12.32;;;;;;;5.69;100.00;101404.22;5093417;28;20500;-58
2023/12/14 06:29:00;;;;;;;16.65;12.27;;;;;;;5.69;100.00;101410.34;5076267;28;20039;-58
2023/12/14 06:31:25;;;;;;;17.83;12.10;;;;;;;5.71;100.00;101415.59;5111197;28;20023;-58
2023/12/14 06:33:50;;;;;;;16.38;11.23;;;;;;;5.71;100.00;101412.94;5110875;28;20030;-58
2023/12/14 06:36:19;;;;;;;19.55;12.35;;;;;;;5.70;100.00;101425.25;5111492;28;20028;-58
2023/12/14 06:38:45;;;;;;;16.37;11.40;;;;;;;5.69;100.00;101430.59;5092522;28;20026;-58
2023/12/14 06:41:23;;;;;;;16.15;11.20;;;;;;;5.71;100.00;101428.78;5075925;28;20265;-59
2023/12/14 06:43:49;;;;;;;15.82;11.23;;;;;;;5.63;100.00;101429.03;5110851;28;20102;-58
2023/12/14 06:46:15;;;;;;;16.65;11.35;;;;;;;5.63;100.00;101446.66;5093114;28;20084;-58
2023/12/14 06:48:41;;;;;;;17.38;12.00;;;;;;;5.58;100.00;101433.59;5092612;28;20011;-58
2023/12/14 06:51:07;;;;;;;15.68;11.02;;;;;;;5.64;100.00;101440.44;5093400;28;20019;-58
2023/12/14 06:53:32;;;;;;;19.23;11.93;;;;;;;5.69;100.00;101454.34;5110547;28;20107;-58
2023/12/14 06:55:58;;;;;;;23.10;12.10;;;;;;;5.66;100.00;101457.94;5111436;28;20027;-58
2023/12/14 06:58:23;;;;;;;21.17;13.70;;;;;;;5.64;100.00;101459.78;5110969;28;20469;-59
2023/12/14 07:00:49;;;;;;;24.58;13.73;;;;;;;5.65;100.00;101458.03;5111440;28;20020;-58
2023/12/14 07:03:15;;;;;;;27.02;13.90;;;;;;;5.59;100.00;101466.09;5111004;28;20525;-59
2023/12/14 07:05:40;;;;;;;26.95;14.30;;;;;;;5.56;100.00;101476.75;5111088;28;20018;-58
2023/12/14 07:08:08;;;;;;;25.38;14.35;;;;;;;5.53;100.00;101471.59;5110764;28;20070;-59
2023/12/14 07:10:34;;;;;;;26.42;14.52;;;;;;;5.49;100.00;101478.75;5092531;28;20493;-58
2023/12/14 07:13:01;;;;;;;26.58;13.43;;;;;;;5.50;100.00;101482.22;5110798;28;20201;-58
2023/12/14 07:15:29;;;;;;;25.13;13.77;;;;;;;5.46;100.00;101481.47;5110737;28;20051;-58
2023/12/14 07:17:55;;;;;;;26.45;14.23;;;;;;;5.45;100.00;101500.88;5108211;28;20033;-58
2023/12/14 07:20:21;;;;;;;21.58;12.88;;;;;;;5.43;100.00;101510.59;5111006;28;20090;-58
2023/12/14 07:22:46;;;;;;;30.17;16.25;;;;;;;5.38;100.00;101510.75;5110535;28;20445;-58
2023/12/14 07:25:12;;;;;;;22.92;13.75;;;;;;;5.40;100.00;101514.19;5110662;28;20063;-58
2023/12/14 07:27:37;;;;;;;20.80;13.77;;;;;;;5.42;100.00;101527.34;5110868;28;20032;-58
2023/12/14 07:30:03;;;;;;;24.50;14.57;;;;;;;5.42;100.00;101527.34;5092324;28;20399;-58
2023/12/14 07:32:28;;;;;;;27.27;14.60;;;;;;;5.38;100.00;101537.13;5110714;28;20015;-58
2023/12/14 07:34:54;;;;;;;22.48;12.75;;;;;;;5.40;100.00;101539.69;5110878;28;20016;-58
2023/12/14 07:37:22;;;;;;;24.35;13.23;;;;;;;5.40;100.00;101540.56;5092607;28;20026;-58
2023/12/14 07:39:48;;;;;;;20.52;12.45;;;;;;;5.44;100.00;101549.25;5093348;28;20106;-58
2023/12/14 07:42:19;;;;;;;22.67;12.50;;;;;;;5.43;100.00;101542.25;5096342;28;20099;-58
2023/12/14 07:44:44;;;;;;;30.58;13.95;;;;;;;5.42;100.00;101546.66;5114074;28;20023;-58
2023/12/14 07:47:10;;;;;;;21.30;11.93;;;;;;;5.42;100.00;101553.72;5114602;28;20020;-58
2023/12/14 07:49:35;;;;;;;27.05;12.95;;;;;;;5.41;100.00;101558.13;5113651;28;20026;-60
2023/12/14 07:52:00;;;;;;;22.73;13.25;;;;;;;5.38;100.00;101558.22;5113885;28;20050;-59
2023/12/14 07:54:26;;;;;;;21.80;12.40;;;;;;;5.36;100.00;101554.75;5113073;28;20055;-59
2023/12/14 07:56:52;;;;;;;18.70;10.98;;;;;;;5.36;100.00;101565.31;5078350;28;20481;-59
2023/12/14 07:59:17;;;;;;;22.02;11.30;;;;;;;5.36;100.00;101567.09;5095128;28;20023;-60
2023/12/14 08:01:43;;;;;;;22.88;12.15;;;;;;;5.35;100.00;101575.91;5113116;28;20027;-59
2023/12/14 08:04:10;;;;;;;19.92;11.38;;;;;;;5.37;100.00;101579.38;5111768;28;20050;-58
2023/12/14 08:06:35;;;;;;;22.05;11.38;;;;;;;5.34;100.00;101585.59;5112635;27;20488;-58
2023/12/14 08:09:00;;;;;;;20.33;11.73;;;;;;;5.30;100.00;101583.97;5110132;27;20023;-58
2023/12/14 08:11:27;;;;;;;18.42;10.13;;;;;;;5.33;100.00;101591.78;5111532;28;20031;-59
2023/12/14 08:13:52;;;;;;;18.77;11.25;;;;;;;5.35;100.00;101589.09;5121348;27;20030;-58
2023/12/14 08:16:18;;;;;;;21.75;11.07;;;;;;;5.37;100.00;101589.91;5081462;28;20398;-58
2023/12/14 08:18:48;;;;;;;16.02;10.52;;;;;;;5.38;100.00;101589.88;5096986;27;20027;-58
2023/12/14 08:21:13;;;;;;;22.38;11.60;;;;;;;5.36;100.00;101596.97;5111964;27;20019;-58
2023/12/14 08:23:39;;;;;;;16.30;9.93;;;;;;;5.33;100.00;101604.13;5111693;28;20027;-58
2023/12/14 08:26:04;;;;;;;15.35;9.50;;;;;;;5.36;100.00;101620.72;5112226;28;20058;-59
2023/12/14 08:28:30;;;;;;;17.83;10.13;;;;;;;5.35;100.00;101621.59;5112421;27;20497;-58
2023/12/14 08:30:58;;;;;;;15.80;9.85;;;;;;;5.33;100.00;101619.94;5111663;28;20502;-58
2023/12/14 08:33:23;;;;;;;15.63;10.77;;;;;;;5.35;100.00;101631.28;5111774;28;20072;-59
2023/12/14 08:35:50;;;;;;;15.85;9.65;;;;;;;5.38;100.00;101633.84;5076990;28;20064;-58
2023/12/14 08:38:16;;;;;;;17.42;10.45;;;;;;;5.32;100.00;101628.75;5092873;28;20035;-58
2023/12/14 08:40:42;;;;;;;13.02;9.98;;;;;;;5.40;100.00;101640.78;5093630;27;20500;-59
2023/12/14 08:43:07;;;;;;;16.92;10.60;;;;;;;5.40;100.00;101654.00;5112033;27;20028;-58
2023/12/14 08:45:32;;;;;;;17.40;9.98;;;;;;;5.42;100.00;101656.59;5124942;27;20614;-58
2023/12/14 08:47:58;;;;;;;16.65;11.05;;;;;;;5.45;100.00;101665.28;5112044;28;20046;-58
2023/12/14 08:50:26;;;;;;;14.95;9.60;;;;;;;5.44;100.00;101666.22;5112585;28;20027;-58
2023/12/14 08:52:51;;;;;;;17.30;9.75;;;;;;;5.42;100.00;101672.44;5112309;27;20031;-58
2023/12/14 08:55:17;;;;;;;16.60;10.75;;;;;;;5.37;100.00;101659.34;5112619;28;20563;-58
2023/12/14 08:57:42;;;;;;;15.20;9.75;;;;;;;5.38;100.00;101665.50;5094398;28;20023;-58
2023/12/14 09:00:08;;;;;;;16.50;10.10;;;;;;;5.37;100.00;101669.03;5094274;28;20108;-58
2023/12/14 09:02:36;;;;;;;16.10;10.45;;;;;;;5.28;100.00;101653.47;5116725;27;20059;-58
2023/12/14 09:05:02;;;;;;;13.70;8.98;;;;;;;5.34;100.00;101672.63;5118559;27;20027;-58
2023/12/14 09:07:27;;;;;;;18.90;10.60;;;;;;;5.31;100.00;101671.84;5095954;27;20028;-58
2023/12/14 09:09:52;;;;;;;13.43;10.35;;;;;;;5.33;100.00;101678.81;5111964;28;20039;-58
2023/12/14 09:12:18;;;;;;;13.63;9.50;;;;;;;5.35;100.00;101687.53;5112415;28;20027;-58
2023/12/14 09:14:44;;;;;;;14.75;9.27;;;;;;;5.39;100.00;101694.47;5112039;28;20019;-58
2023/12/14 09:17:09;;;;;;;14.52;10.35;;;;;;;5.42;100.00;101704.09;5093831;28;20459;-58
2023/12/14 09:19:35;;;;;;;15.05;9.98;;;;;;;5.45;100.00;101711.91;5093729;28;20114;-58
2023/12/14 09:22:00;;;;;;;16.25;10.07;;;;;;;5.39;100.00;101712.94;5093823;28;20054;-58
2023/12/14 09:24:28;;;;;;;13.05;9.98;;;;;;;5.38;100.00;101713.88;5093159;28;20155;-58
2023/12/14 09:26:54;;;;;;;14.95;8.82;;;;;;;5.42;100.00;101722.56;5111850;28;20035;-58
2023/12/14 09:29:19;;;;;;;16.00;9.65;;;;;;;5.46;100.00;101730.31;5093246;28;20047;-58
2023/12/14 09:31:46;;;;;;;11.32;9.70;;;;;;;5.45;100.00;101725.97;5093876;28;20024;-58
2023/12/14 09:34:11;;;;;;;16.75;9.98;;;;;;;5.46;100.00;101740.00;5111856;28;20561;-58
2023/12/14 09:36:38;;;;;;;12.77;8.98;;;;;;;5.46;100.00;101745.28;5094380;28;20122;-58
2023/12/14 09:39:03;;;;;;;14.90;9.10;;;;;;;5.43;100.00;101740.09;5111896;28;20055;-58
2023/12/14 09:41:29;;;;;;;13.10;9.13;;;;;;;5.48;100.00;101754.03;5094275;28;20212;-58
2023/12/14 09:43:55;;;;;;;15.23;10.13;;;;;;;5.49;100.00;101754.91;5112009;28;20058;-58
2023/12/14 09:46:21;;;;;;;11.60;8.82;;;;;;;5.51;100.00;101756.59;5094058;28;20055;-59
2023/12/14 09:48:50;;;;;;;13.00;9.02;;;;;;;5.55;100.00;101766.13;5112060;28;20035;-59
2023/12/14 09:51:16;;;;;;;14.40;9.70;;;;;;;5.54;100.00;101767.06;5094001;28;20394;-58
2023/12/14 09:53:42;;;;;;;9.57;8.35;;;;;;;5.47;100.00;101773.38;5093284;28;20023;-58
2023/12/14 09:56:08;;;;;;;13.70;9.20;;;;;;;5.47;100.00;101779.56;5074927;28;20030;-58
2023/12/14 09:58:36;;;;;;;15.00;9.63;;;;;;;5.45;100.00;101778.72;5093456;28;20015;-58
2023/12/14 10:01:04;;;;;;;14.98;10.00;;;;;;;5.43;100.00;101771.75;5112066;28;20027;-58
2023/12/14 10:03:30;;;;;;;12.80;8.63;;;;;;;5.51;100.00;101793.53;5110213;28;20311;-58
2023/12/14 10:05:56;;;;;;;12.23;10.05;;;;;;;5.48;100.00;101801.53;5092671;28;20530;-59
2023/12/14 10:08:22;;;;;;;14.15;10.18;;;;;;;5.45;100.00;101802.47;5092854;28;20039;-59
2023/12/14 10:10:52;;;;;;;13.55;9.77;;;;;;;5.42;100.00;101807.81;5110712;28;20115;-58
2023/12/14 10:13:23;;;;;;;11.45;9.30;;;;;;;5.47;100.00;101808.56;5111298;28;20368;-58
2023/12/14 10:15:49;;;;;;;12.40;9.32;;;;;;;5.49;100.00;101815.56;5093077;28;20019;-58
2023/12/14 10:18:24;;;;;;;15.25;9.85;;;;;;;5.44;100.00;101816.56;5091881;28;20363;-59
2023/12/14 10:20:50;;;;;;;9.73;8.57;;;;;;;5.41;100.00;101816.66;5111035;28;20100;-58
2023/12/14 10:23:17;;;;;;;12.18;9.18;;;;;;;5.41;100.00;101815.75;5110700;28;20558;-58
2023/12/14 10:25:43;;;;;;;11.55;9.77;;;;;;;5.37;100.00;101820.25;5110950;28;20032;-59
2023/12/14 10:28:12;;;;;;;10.13;8.18;;;;;;;5.43;100.00;101825.38;5092515;28;20034;-58
2023/12/14 10:30:37;;;;;;;13.60;8.25;;;;;;;5.41;100.00;101827.22;5110883;28;20482;-59
2023/12/14 10:33:03;;;;;;;13.10;9.20;;;;;;;5.41;100.00;101826.31;5092338;28;20035;-59
2023/12/14 10:35:28;;;;;;;10.85;8.48;;;;;;;5.38;100.00;101832.56;5111362;28;20023;-59
2023/12/14 10:37:58;;;;;;;16.23;9.40;;;;;;;5.36;100.00;101831.72;5110277;28;20023;-59
2023/12/14 10:40:26;;;;;;;13.35;9.88;;;;;;;5.36;100.00;101833.50;5110681;28;20047;-58
2023/12/14 10:42:52;;;;;;;12.65;9.00;;;;;;;5.28;100.00;101824.91;5092077;28;20489;-58
2023/12/14 10:45:19;;;;;;;15.63;10.25;;;;;;;5.38;100.00;101832.56;5110938;28;20026;-59
2023/12/14 10:47:46;;;;;;;21.05;9.60;;;;;;;5.39;100.00;101836.91;5111317;28;20023;-59
2023/12/14 10:50:12;;;;;;;12.40;9.50;;;;;;;5.41;100.00;101850.94;5110639;28;20038;-59
2023/12/14 10:52:41;;;;;;;15.48;9.98;;;;;;;5.44;100.00;101836.78;5110483;28;20465;-59
2023/12/14 10:55:21;;;;;;;14.00;10.70;;;;;;;5.28;100.00;101823.13;5110738;28;20022;-58
2023/12/14 10:57:46;;;;;;;13.93;8.82;;;;;;;5.34;100.00;101853.78;5110800;28;20030;-59
2023/12/14 11:00:12;;;;;;;11.95;8.55;;;;;;;5.32;100.00;101852.94;5091728;28;20028;-58
2023/12/14 11:02:44;;;;;;;10.10;7.97;;;;;;;5.35;100.00;101850.22;5110603;28;20019;-59
2023/12/14 11:05:12;;;;;;;14.68;8.95;;;;;;;5.39;100.00;101851.88;5110944;28;20382;-59
2023/12/14 11:07:54;;;;;;;12.98;8.85;;;;;;;5.40;100.00;101856.25;5108901;28;20478;-58